Flight Track Log - Related Links

Times and Time Zones

All times are in EDT time to prevent confusion due to time zone crossing. See the UAL4679 flight status page for this flight to view local times or setup timezone preferences in your user account.

Time Position Orientation Groundspeed Altitude Reporting Facility
EDT Latitude Longitude Course Direction KTS MPH feet Rate Location/Type
Sun 12:37:42 PM 40.6667 -74.1833 194° South 162 186 1,400  Level New York TRACON
Sun 12:38:43 PM 40.6167 -74.2167 207° Southwest 199 229 2,900 1,410 Climbing New York TRACON
Sun 12:40:00 PM 40.3949 -74.1974 159° South  Level FlightAware Approximate
Sun 12:41:00 PM 40.2947 -74.1518 194° South  Level FlightAware Approximate
Sun 12:41:02 PM 40.4753 -74.2414 188° South 239 275 6,100  Level New York Center
Sun 12:42:00 PM 40.1909 -74.1864 194° South  Level FlightAware Approximate
Sun 12:42:03 PM 40.4072 -74.2108 161° South 251 289 6,100  Level New York Center
Sun 12:43:03 PM 40.3397 -74.1747 158° South 267 307 6,700 1,119 Climbing New York Center
Sun 12:44:01 PM 40.2667 -74.1739 180° South 262 302 8,300 1,815 Climbing New York Center
Sun 12:45:02 PM 40.1931 -74.2000 195° South 259 298 10,300 1,240 Climbing New York Center
Sun 12:46:02 PM 40.1089 -74.2258 193° South 285 328 10,800 971 Climbing New York Center
Sun 12:48:32 PM 39.9050 -74.3500 205° Southwest 336 387 13,700 1,143 Climbing Washington Center
Sun 12:49:32 PM 39.8267 -74.4217 215° Southwest 347 399 14,800 1,050 Climbing Washington Center
Sun 12:50:32 PM 39.7586 -74.5119 226° Southwest 352 405 15,800 934 Climbing Washington Center
Sun 12:51:34 PM 39.6886 -74.6019 225° Southwest 357 411 16,700 908 Climbing Washington Center
Sun 12:52:31 PM 39.6183 -74.6944 225° Southwest 357 411 17,600 966 Climbing Washington Center
Sun 12:53:32 PM 39.5483 -74.7869 226° Southwest 357 411 18,600 992 Climbing Washington Center
Sun 12:54:32 PM 39.4758 -74.8844 226° Southwest 357 411 19,600 992 Climbing Washington Center
Sun 12:55:33 PM 39.3994 -74.9872 226° Southwest 362 417 20,600 958 Climbing Washington Center
Sun 12:56:31 PM 39.3247 -75.0819 224° Southwest 362 417 21,500 958 Climbing Washington Center
Sun 12:57:32 PM 39.2314 -75.1442 207° Southwest 375 432 22,500 942 Climbing Washington Center
Sun 12:58:32 PM 39.1272 -75.1875 198° South 375 432 23,400 942 Climbing Washington Center
Sun 12:59:33 PM 39.0272 -75.2256 196° South 386 444 24,400 992 Climbing Washington Center
Sun 01:00:33 PM 38.9253 -75.2714 199° South 386 444 25,400 966 Climbing Washington Center
Sun 01:01:31 PM 38.8275 -75.3172 200° South 386 444 26,300 915 Climbing Washington Center
Sun 01:02:31 PM 38.7422 -75.3842 211° Southwest 375 432 27,200 942 Climbing Washington Center
Sun 01:03:32 PM 38.6589 -75.4586 215° Southwest 370 426 28,200 992 Climbing Washington Center
Sun 01:04:32 PM 38.5775 -75.5306 215° Southwest 370 426 29,200 942 Climbing Washington Center
Sun 01:05:33 PM 38.4922 -75.6022 213° Southwest 376 433 30,100 942 Climbing Washington Center
Sun 01:06:33 PM 38.4108 -75.6739 215° Southwest 376 433 31,100 1,068 Climbing Washington Center
Sun 01:07:31 PM 38.3272 -75.7478 215° Southwest 376 433 32,200 1,017 Climbing Washington Center
Sun 01:08:31 PM 38.2500 -75.8086 212° Southwest 376 433 33,100 942 Climbing Washington Center
Sun 01:09:32 PM 38.1686 -75.8822 215° Southwest 376 433 34,100 934 Climbing Washington Center
Sun 01:10:33 PM 38.0850 -75.9506 213° Southwest 376 433 35,000 908 Climbing Washington Center
Sun 01:11:31 PM 38.0033 -76.0239 215° Southwest 376 433 35,900 508 Climbing Washington Center
Sun 01:12:31 PM 37.9197 -76.0944 214° Southwest 376 433 36,000 50 Climbing Washington Center
Sun 01:13:32 PM 37.8486 -76.1544 214° Southwest 376 433 36,000  Level Washington Center
Sun 01:14:32 PM 37.7397 -76.2483 214° Southwest 382 440 36,000  Level Washington Center
Sun 01:15:33 PM 37.6433 -76.3314 214° Southwest 403 464 36,000  Level Washington Center
Sun 01:16:33 PM 37.5447 -76.4142 214° Southwest 424 488 36,000  Level Washington Center
Sun 01:17:31 PM 37.4378 -76.4889 209° Southwest 429 494 36,000  Level Washington Center
Sun 01:18:31 PM 37.3164 -76.5267 194° South 437 503 36,000  Level Washington Center
Sun 01:19:32 PM 37.1953 -76.5697 196° South 447 514 36,000  Level Washington Center
Sun 01:20:33 PM 37.0964 -76.6517 213° Southwest 442 509 36,000  Level Washington Center
Sun 01:21:33 PM 37.0017 -76.7414 217° Southwest 429 494 36,000  Level Washington Center
Sun 01:22:31 PM 36.9050 -76.8308 217° Southwest 434 499 36,000  Level Washington Center
Sun 01:23:31 PM 36.8100 -76.9253 219° Southwest 439 505 36,000  Level Washington Center
Sun 01:24:32 PM 36.7131 -77.0144 216° Southwest 444 511 36,000  Level Washington Center
Sun 01:25:33 PM 36.6181 -77.1058 218° Southwest 444 511 36,000  Level Washington Center
Sun 01:26:33 PM 36.5231 -77.1969 218° Southwest 444 511 36,000  Level Washington Center
Sun 01:27:31 PM 36.4278 -77.2853 217° Southwest 444 511 36,000  Level Washington Center
Sun 01:28:32 PM 36.3328 -77.3761 218° Southwest 444 511 36,000  Level Washington Center
Sun 01:29:32 PM 36.2269 -77.4742 217° Southwest 444 511 36,000  Level Washington Center
Sun 01:30:33 PM 36.1314 -77.5644 217° Southwest 439 505 36,000  Level Washington Center
Sun 01:31:33 PM 36.0464 -77.6653 224° Southwest 439 505 36,000  Level Washington Center
Sun 01:32:31 PM 35.9836 -77.7867 237° Southwest 433 498 36,000  Level Washington Center
Sun 01:33:32 PM 35.9208 -77.9081 237° Southwest 427 491 36,000  Level Washington Center
Sun 01:34:32 PM 35.8317 -77.9925 218° Southwest 399 459 36,000  Level Washington Center
Sun 01:35:33 PM 35.7278 -78.0661 210° Southwest 414 476 36,000  Level Washington Center
Sun 01:36:33 PM 35.6219 -78.1394 209° Southwest 432 497 36,000  Level Washington Center
Sun 01:37:33 PM 35.5161 -78.2128 209° Southwest 444 511 36,000  Level Washington Center
Sun 01:38:31 PM 35.4311 -78.2764 211° Southwest 449 517 36,000  Level Washington Center
Sun 01:39:32 PM 35.3144 -78.3564 209° Southwest 449 517 36,000  Level Washington Center
Sun 01:40:32 PM 35.2125 -78.4342 212° Southwest 444 511 36,000  Level Washington Center
Sun 01:41:34 PM 35.1128 -78.5069 211° Southwest 438 504 36,000  Level Washington Center
Sun 01:42:31 PM 35.0086 -78.5817 210° Southwest 438 504 36,000  Level Washington Center
Sun 01:44:44 PM 34.7736 -78.7453 210° Southwest 436 502 36,000  Level Jacksonville Center
Sun 01:45:44 PM 34.6697 -78.8158 209° Southwest 436 502 36,000  Level Jacksonville Center
Sun 01:46:44 PM 34.5658 -78.8914 211° Southwest 436 502 36,000  Level Jacksonville Center
Sun 01:47:44 PM 34.4619 -78.9717 213° Southwest 436 502 36,000  Level Jacksonville Center
Sun 01:48:44 PM 34.3556 -79.0444 209° Southwest 441 507 36,000  Level Jacksonville Center
Sun 01:49:44 PM 34.2494 -79.1169 209° Southwest 441 507 36,000  Level Jacksonville Center
Sun 01:50:44 PM 34.1431 -79.1917 210° Southwest 441 507 36,000  Level Jacksonville Center
Sun 01:51:44 PM 34.0389 -79.2639 210° Southwest 436 502 36,000 -50 Level Jacksonville Center
Sun 01:52:44 PM 33.9325 -79.3383 210° Southwest 447 514 35,900  Descending Jacksonville Center
Sun 01:53:44 PM 33.8258 -79.4078 208° Southwest 442 509 36,000 50 Climbing Jacksonville Center
Sun 01:54:44 PM 33.7306 -79.5064 221° Southwest 429 494 36,000 -300 Level Jacksonville Center
Sun 01:55:44 PM 33.6497 -79.6117 227° Southwest 429 494 35,400 -650 Descending Jacksonville Center
Sun 01:56:44 PM 33.5689 -79.7144 227° Southwest 424 488 34,700 -700 Descending Jacksonville Center
Sun 01:57:44 PM 33.4881 -79.8194 227° Southwest 429 494 34,000 -700 Descending Jacksonville Center
Sun 01:58:44 PM 33.3878 -79.9050 215° Southwest 436 502 33,300 -850 Descending Jacksonville Center
Sun 01:59:44 PM 33.2789 -79.9781 209° Southwest 447 514 32,300 -1,000 Descending Jacksonville Center
Sun 02:00:44 PM 33.1700 -80.0486 208° Southwest 447 514 31,300 -1,000 Descending Jacksonville Center
Sun 02:01:44 PM 33.0653 -80.1239 211° Southwest 447 514 30,300 -650 Descending Jacksonville Center
Sun 02:02:44 PM 32.9542 -80.1967 209° Southwest 468 539 30,000 -200 Descending Jacksonville Center
Sun 02:03:44 PM 32.8492 -80.2667 209° Southwest 468 539 29,900  Descending Jacksonville Center
Sun 02:04:44 PM 32.7400 -80.3389 209° Southwest 458 527 30,000 50 Climbing Jacksonville Center
Sun 02:05:44 PM 32.6308 -80.4136 210° Southwest 458 527 30,000  Level Jacksonville Center
Sun 02:06:44 PM 32.5175 -80.4881 209° Southwest 458 527 30,000  Level Jacksonville Center
Sun 02:07:44 PM 32.4081 -80.5597 209° Southwest 458 527 30,000  Level Jacksonville Center
Sun 02:08:44 PM 32.2967 -80.6339 209° Southwest 458 527 30,000 -300 Level Jacksonville Center
Sun 02:09:44 PM 32.1872 -80.7053 209° Southwest 458 527 29,400 -850 Descending Jacksonville Center
Sun 02:10:44 PM 32.0697 -80.7867 210° Southwest 437 503 28,300 -1,000 Descending Jacksonville Center
Sun 02:11:44 PM 31.9603 -80.8578 209° Southwest 445 512 27,400 -950 Descending Jacksonville Center
Sun 02:12:44 PM 31.8569 -80.9236 208° Southwest 458 527 26,400 -1,250 Descending Jacksonville Center
Sun 02:13:44 PM 31.7350 -81.0044 209° Southwest 458 527 24,900 -1,650 Descending Jacksonville Center
Sun 02:14:44 PM 31.6253 -81.0750 209° Southwest 453 521 23,100 -2,250 Descending Jacksonville Center
Sun 02:15:44 PM 31.5322 -81.1353 209° Southwest 436 502 20,400 -2,900 Descending Jacksonville Center
Sun 02:16:44 PM 31.4244 -81.2053 209° Southwest 409 471 17,300 -2,900 Descending Jacksonville Center
Sun 02:17:44 PM 31.3397 -81.2628 210° Southwest 396 456 14,600 -2,900 Descending Jacksonville Center
Sun 02:18:44 PM 31.2506 -81.3203 209° Southwest 391 450 11,500 -2,250 Descending Jacksonville Center
Sun 02:19:44 PM 31.1553 -81.3803 208° Southwest 375 432 10,100 -750 Descending Jacksonville Center
Sun 02:20:44 PM 31.0744 -81.4325 209° Southwest 354 407 10,000  Descending Jacksonville Center
Sun 02:21:34 PM 30.9850 -81.4653 197° South 373 429 10,100 57 Climbing Jacksonville Center
Sun 02:22:29 PM 30.8936 -81.4861 191° South 359 413 10,100 -86 Level Jacksonville Center
Sun 02:22:44 PM 30.8853 -81.4886 194° South 364 419 10,000 -787 Descending Jacksonville Center
Sun 02:23:30 PM 30.8208 -81.5356 212° Southwest 274 315 9,300 -1,346 Descending Jacksonville Center
Sun 02:24:31 PM 30.7567 -81.5800 211° Southwest 275 316 7,600 -1,707 Descending Jacksonville Center
Sun 02:25:26 PM 30.7008 -81.6267 216° Southwest 266 306 6,000 -1,562 Descending Jacksonville Center
Sun 02:25:44 PM 30.6883 -81.6317 199° South 281 323 5,700 -1,615 Descending Jacksonville Center
Sun 02:26:44 PM 30.6303 -81.6806 216° Southwest 269 310 3,900 -1,800 Descending Jacksonville Center

Login

Don't have an account? Register now (free) for customized features, flight alerts, and more!